Time;durP1;ratioP1;P1;durP2;ratioP2;P2;SDS_P1;SDS_P2;PMS_P1;PMS_P2;Temp;Humidity;BMP_temperature;BMP_pressure;BME280_temperature;BME280_humidity;BME280_pressure;Samples;Min_cycle;Max_cycle;Signal;HPM_P1;HPM_P2
2021/05/10 00:04:40;;;;;;;3.97;3.58;;;;;;;10.43;100.00;95425.56;10417981;28;20109;-82
2021/05/10 00:09:42;;;;;;;6.70;3.47;;;;;;;10.29;100.00;95438.56;10415724;28;20104;-82
2021/05/10 00:14:48;;;;;;;4.22;3.92;;;;;;;10.18;100.00;95431.47;10413012;28;20029;-82
2021/05/10 00:19:48;;;;;;;6.13;3.67;;;;;;;10.01;100.00;95429.69;10398904;28;20534;-82
2021/05/10 00:24:49;;;;;;;5.70;3.92;;;;;;;10.01;100.00;95427.00;10413330;28;20021;-83
2021/05/10 00:29:49;;;;;;;3.45;3.15;;;;;;;9.97;100.00;95430.44;10411497;28;20087;-82
2021/05/10 00:34:50;;;;;;;7.07;4.57;;;;;;;9.83;100.00;95427.34;10415346;28;20045;-82
2021/05/10 00:39:51;;;;;;;5.63;3.90;;;;;;;9.65;100.00;95433.81;10399479;28;20272;-81
2021/05/10 00:44:51;;;;;;;4.27;3.83;;;;;;;9.62;100.00;95426.28;10398729;28;20045;-82
2021/05/10 00:49:51;;;;;;;8.63;5.10;;;;;;;9.66;100.00;95425.53;10417178;28;20152;-83
2021/05/10 00:54:54;;;;;;;4.43;4.03;;;;;;;9.64;100.00;95416.09;10416803;28;20037;-82
2021/05/10 00:59:54;;;;;;;4.95;4.55;;;;;;;9.56;100.00;95415.47;10398884;28;20030;-82
2021/05/10 01:04:55;;;;;;;5.25;4.75;;;;;;;9.38;100.00;95419.28;10416105;28;20033;-83
2021/05/10 01:09:55;;;;;;;5.73;4.13;;;;;;;9.35;100.00;95406.38;10414906;28;20052;-82
2021/05/10 01:14:56;;;;;;;5.97;4.30;;;;;;;9.34;100.00;95414.66;10408309;28;20496;-82
2021/05/10 01:19:56;;;;;;;5.80;4.72;;;;;;;9.24;100.00;95415.34;10410516;28;20038;-77
2021/05/10 01:24:57;;;;;;;6.13;4.05;;;;;;;9.32;100.00;95406.88;10389776;28;20041;-78
2021/05/10 01:29:58;;;;;;;5.22;4.00;;;;;;;9.23;100.00;95405.66;10389496;28;20030;-82
2021/05/10 01:34:59;;;;;;;8.57;4.85;;;;;;;9.18;100.00;95402.91;10370095;28;20042;-79
2021/05/10 01:39:59;;;;;;;10.70;4.47;;;;;;;9.01;100.00;95398.38;10373937;28;20029;-82
2021/05/10 01:45:00;;;;;;;10.43;4.78;;;;;;;9.03;100.00;95396.28;10372861;28;20507;-82
2021/05/10 01:50:09;;;;;;;4.95;4.45;;;;;;;9.03;100.00;95406.19;10373053;28;20030;-82
2021/05/10 01:55:10;;;;;;;5.10;4.60;;;;;;;8.92;100.00;95407.09;10372887;28;20482;-82
2021/05/10 02:00:15;;;;;;;4.97;4.13;;;;;;;8.78;100.00;95404.75;10372971;28;20041;-82
2021/05/10 02:05:18;;;;;;;6.28;5.22;;;;;;;8.67;100.00;95408.34;10372263;28;20477;-82
2021/05/10 02:10:28;;;;;;;5.82;4.50;;;;;;;8.52;100.00;95404.34;10372855;28;20040;-82
2021/05/10 02:15:31;;;;;;;6.20;4.85;;;;;;;8.62;100.00;95413.63;10372556;28;20058;-82
2021/05/10 02:20:32;;;;;;;7.20;6.50;;;;;;;8.43;100.00;95404.97;10372063;28;20041;-83
2021/05/10 02:25:36;;;;;;;5.70;5.13;;;;;;;8.46;100.00;95418.72;10372449;28;20029;-83
2021/05/10 02:30:38;;;;;;;6.03;4.78;;;;;;;8.43;100.00;95407.63;10372582;28;20025;-83
2021/05/10 02:35:39;;;;;;;9.63;4.95;;;;;;;8.39;100.00;95418.03;10354120;28;20021;-82
2021/05/10 02:40:41;;;;;;;5.82;4.78;;;;;;;8.34;100.00;95417.94;10371401;28;20088;-82
2021/05/10 02:45:41;;;;;;;8.07;5.30;;;;;;;8.23;100.00;95413.47;10371265;28;20107;-82
2021/05/10 02:50:42;;;;;;;5.78;4.72;;;;;;;8.30;100.00;95420.31;10371317;28;20034;-82
2021/05/10 02:55:42;;;;;;;6.60;5.95;;;;;;;8.23;100.00;95414.28;10371409;28;20390;-82
2021/05/10 03:00:43;;;;;;;8.07;5.35;;;;;;;8.30;100.00;95414.97;10371611;28;20037;-82
2021/05/10 03:05:43;;;;;;;8.50;5.67;;;;;;;8.30;100.00;95414.13;10371197;28;20057;-82
2021/05/10 03:10:43;;;;;;;6.70;5.17;;;;;;;8.19;100.00;95419.31;10371375;28;20693;-83
2021/05/10 03:15:44;;;;;;;8.47;5.70;;;;;;;8.14;100.00;95427.25;10370571;28;20300;-82
2021/05/10 03:20:44;;;;;;;7.07;4.30;;;;;;;8.14;100.00;95432.59;10379363;28;20109;-82
2021/05/10 03:25:45;;;;;;;5.47;4.80;;;;;;;8.06;100.00;95430.31;10379615;28;20386;-83
2021/05/10 03:30:45;;;;;;;7.97;5.05;;;;;;;8.10;100.00;95433.34;10378063;28;20408;-83
2021/05/10 03:35:45;;;;;;;8.97;5.80;;;;;;;8.12;100.00;95429.38;10377898;28;20029;-83
2021/05/10 03:40:46;;;;;;;11.23;4.17;;;;;;;8.05;100.00;95442.06;10378805;28;20029;-83
2021/05/10 03:45:46;;;;;;;10.53;5.73;;;;;;;7.86;100.00;95438.78;10378505;28;20046;-82
2021/05/10 03:50:46;;;;;;;6.67;5.17;;;;;;;7.91;100.00;95444.25;10378666;28;20093;-81
2021/05/10 03:55:47;;;;;;;10.23;6.27;;;;;;;7.81;100.00;95446.72;10377600;28;20038;-82
2021/05/10 04:00:48;;;;;;;5.80;5.15;;;;;;;7.90;100.00;95453.31;10376165;28;20380;-81
2021/05/10 04:16:13;;;;;;;10.65;5.90;;;;;;;8.19;100.00;95462.16;10372408;28;20038;-82
2021/05/10 04:21:14;;;;;;;4.77;4.23;;;;;;;8.37;100.00;95471.03;10376124;28;20029;-82
2021/05/10 04:26:14;;;;;;;4.85;4.38;;;;;;;8.47;100.00;95459.72;10374905;28;20279;-82
2021/05/10 04:31:14;;;;;;;6.53;5.00;;;;;;;8.70;100.00;95464.94;10375986;28;20053;-83
2021/05/10 04:36:15;;;;;;;5.23;3.77;;;;;;;8.88;100.00;95457.72;10370788;28;20435;-78
2021/05/10 04:41:15;;;;;;;8.10;3.63;;;;;;;9.27;100.00;95467.69;10366601;28;20096;-78
2021/05/10 04:46:15;;;;;;;7.15;3.97;;;;;;;9.92;100.00;95466.09;10365903;28;20493;-78
2021/05/10 04:51:16;;;;;;;6.13;3.97;;;;;;;10.48;100.00;95467.78;10367036;28;20037;-79
2021/05/10 04:56:16;;;;;;;6.13;3.55;;;;;;;11.18;100.00;95474.03;10365786;28;20048;-79
2021/05/10 05:01:17;;;;;;;9.35;3.65;;;;;;;11.67;100.00;95472.16;10378506;28;20033;-78
2021/05/10 05:06:17;;;;;;;5.33;4.20;;;;;;;11.94;99.58;95472.88;10428085;28;20105;-78
2021/05/10 05:11:17;;;;;;;4.27;3.47;;;;;;;12.21;95.11;95460.25;10429869;28;20713;-78
2021/05/10 05:16:18;;;;;;;10.90;6.13;;;;;;;12.73;90.58;95461.97;10391208;28;20419;-79
2021/05/10 05:21:18;;;;;;;5.73;4.07;;;;;;;13.60;87.51;95463.81;10407794;28;20283;-79
2021/05/10 05:26:18;;;;;;;6.70;3.47;;;;;;;14.29;78.96;95457.88;10413183;28;20021;-76
2021/05/10 05:31:22;;;;;;;5.30;3.50;;;;;;;15.00;72.31;95464.75;10415355;28;20292;-79
2021/05/10 05:36:22;;;;;;;6.43;2.90;;;;;;;15.50;66.72;95456.44;10406371;28;20038;-79
2021/05/10 05:41:22;;;;;;;7.00;2.73;;;;;;;16.60;64.08;95449.44;10406031;28;20025;-79
2021/05/10 05:46:28;;;;;;;7.50;3.00;;;;;;;17.36;56.34;95446.63;10414381;28;20288;-79
2021/05/10 05:51:28;;;;;;;2.97;2.67;;;;;;;17.64;52.83;95457.53;10448069;28;20368;-78
2021/05/10 05:56:31;;;;;;;14.40;3.47;;;;;;;18.25;52.79;95452.03;10443482;28;20037;-77
2021/05/10 06:01:31;;;;;;;7.38;2.78;;;;;;;18.75;49.04;95453.94;10447464;28;20029;-79
2021/05/10 06:06:31;;;;;;;3.57;2.23;;;;;;;18.81;47.90;95458.16;10421813;28;20084;-79
2021/05/10 06:11:32;;;;;;;3.40;2.17;;;;;;;19.46;45.95;95451.41;10405446;28;20465;-79
2021/05/10 06:16:33;;;;;;;9.13;2.85;;;;;;;20.37;45.38;95444.88;10405680;28;20601;-79
2021/05/10 06:21:33;;;;;;;6.43;2.05;;;;;;;20.67;41.62;95434.97;10387763;28;20045;-78
2021/05/10 06:26:33;;;;;;;1.93;1.70;;;;;;;21.59;40.00;95431.22;10404651;28;20029;-77
2021/05/10 06:31:34;;;;;;;4.33;2.10;;;;;;;21.55;40.53;95424.78;10404347;28;20276;-77
2021/05/10 06:36:34;;;;;;;3.70;2.20;;;;;;;21.68;39.09;95423.78;10405256;28;20033;-77
2021/05/10 06:41:34;;;;;;;2.90;1.60;;;;;;;21.98;38.38;95412.88;10404920;28;20508;-77
2021/05/10 06:46:35;;;;;;;2.70;1.70;;;;;;;22.49;37.74;95412.09;10404518;28;20455;-78
2021/05/10 06:51:35;;;;;;;1.93;1.67;;;;;;;23.55;35.98;95407.31;10425295;28;20036;-78
2021/05/10 06:56:35;;;;;;;2.57;1.40;;;;;;;23.95;35.86;95403.97;10413192;28;20523;-80
2021/05/10 07:01:36;;;;;;;2.50;1.57;;;;;;;24.71;33.81;95389.81;10402806;28;20033;-79
2021/05/10 07:06:36;;;;;;;3.17;1.77;;;;;;;24.73;33.06;95393.03;10400930;28;20068;-79
2021/05/10 07:11:37;;;;;;;6.53;1.67;;;;;;;25.02;32.27;95394.63;10401599;28;20037;-79
2021/05/10 07:16:37;;;;;;;4.60;1.45;;;;;;;26.04;31.09;95382.38;10401582;28;20029;-79
2021/05/10 07:21:38;;;;;;;5.13;1.30;;;;;;;26.14;31.24;95388.50;10403915;28;20488;-79
2021/05/10 07:26:39;;;;;;;5.93;1.80;;;;;;;26.78;30.53;95389.94;10403606;28;20492;-80
2021/05/10 07:31:40;;;;;;;6.05;1.38;;;;;;;25.45;31.50;95389.50;10403816;28;20037;-80
2021/05/10 07:36:41;;;;;;;4.75;1.10;;;;;;;27.06;30.10;95385.38;10385712;28;20034;-80
2021/05/10 07:41:41;;;;;;;2.13;1.02;;;;;;;26.66;30.81;95367.19;10403528;28;20462;-80
2021/05/10 07:46:42;;;;;;;5.53;1.23;;;;;;;26.91;29.67;95371.28;10403267;28;20045;-80
2021/05/10 07:51:42;;;;;;;8.20;1.43;;;;;;;27.56;28.75;95371.72;10403609;28;20029;-80
2021/05/10 07:56:42;;;;;;;4.50;1.20;;;;;;;28.34;28.24;95354.06;10403091;28;20125;-80
2021/05/10 08:01:43;;;;;;;5.83;2.70;;;;;;;28.73;27.52;95362.94;10405271;28;20036;-80
2021/05/10 08:06:43;;;;;;;2.67;1.15;;;;;;;28.44;28.35;95370.81;10394630;28;20826;-80
2021/05/10 08:11:44;;;;;;;3.70;1.10;;;;;;;28.56;27.73;95367.00;10369001;28;20478;-80
2021/05/10 08:16:47;;;;;;;8.27;1.40;;;;;;;29.18;28.24;95348.41;10351377;28;20034;-80
2021/05/10 08:21:47;;;;;;;3.45;1.70;;;;;;;29.52;28.02;95351.97;10368824;28;20297;-79
2021/05/10 08:26:47;;;;;;;4.80;1.20;;;;;;;29.87;26.73;95341.59;10368525;28;20034;-79
2021/05/10 08:31:48;;;;;;;4.57;1.20;;;;;;;30.76;25.92;95327.53;10368315;28;20068;-79
2021/05/10 08:36:50;;;;;;;4.10;1.08;;;;;;;30.19;25.33;95321.66;10368787;28;20179;-79
2021/05/10 08:41:51;;;;;;;2.25;1.02;;;;;;;30.58;25.09;95298.91;10368395;28;20029;-79
2021/05/10 08:46:52;;;;;;;9.65;1.48;;;;;;;30.65;26.26;95307.25;10350089;28;20046;-79
2021/05/10 08:51:53;;;;;;;6.85;1.25;;;;;;;31.17;24.64;95296.75;10368127;28;20045;-79
2021/05/10 08:56:55;;;;;;;7.55;1.15;;;;;;;31.46;24.88;95290.44;10367055;28;20040;-79
2021/05/10 09:02:01;;;;;;;2.35;0.70;;;;;;;30.66;25.55;95286.66;10367441;28;20065;-80
2021/05/10 09:07:15;;;;;;;10.20;1.48;;;;;;;31.47;24.95;95275.38;10385300;28;20057;-79
2021/05/10 09:12:17;;;;;;;3.70;0.80;;;;;;;32.08;24.20;95271.78;10389578;28;20052;-79
2021/05/10 09:17:18;;;;;;;3.40;1.13;;;;;;;31.92;24.03;95264.66;10407486;28;20025;-80
2021/05/10 09:22:19;;;;;;;4.00;0.82;;;;;;;32.31;24.24;95261.00;10407579;28;20025;-79
2021/05/10 09:27:26;;;;;;;3.35;1.00;;;;;;;33.11;23.22;95255.13;10430301;28;20028;-79
2021/05/10 09:32:28;;;;;;;5.25;0.88;;;;;;;33.58;23.53;95238.88;10397464;28;20047;-79
2021/05/10 09:37:29;;;;;;;6.35;0.95;;;;;;;33.63;22.39;95227.31;10419116;28;20115;-79
2021/05/10 09:42:50;;;;;;;6.23;1.03;;;;;;;33.77;22.92;95228.38;10407134;28;20096;-79
2021/05/10 09:48:02;;;;;;;1.73;0.90;;;;;;;34.32;22.47;95224.66;10423728;28;20033;-77
2021/05/10 09:53:04;;;;;;;2.28;0.95;;;;;;;34.36;22.33;95210.66;10447464;28;20033;-79
2021/05/10 09:58:06;;;;;;;3.70;0.95;;;;;;;35.40;21.41;95200.06;10447138;28;20037;-79
2021/05/10 10:03:26;;;;;;;3.72;0.80;;;;;;;35.17;21.33;95204.41;10447144;28;20060;-79
2021/05/10 10:08:27;;;;;;;5.20;1.00;;;;;;;35.18;21.96;95197.59;10409889;28;20537;-79
2021/05/10 10:13:27;;;;;;;1.60;0.88;;;;;;;35.31;21.03;95191.47;10446578;28;20118;-79
2021/05/10 10:18:28;;;;;;;4.35;1.02;;;;;;;34.63;21.43;95190.38;10446740;28;20107;-79
2021/05/10 10:23:28;;;;;;;5.33;1.03;;;;;;;34.29;22.86;95172.47;10446192;28;20021;-79
2021/05/10 10:28:29;;;;;;;15.02;1.67;;;;;;;34.39;21.43;95179.13;10445508;28;20287;-79
2021/05/10 10:34:07;;;;;;;2.40;1.15;;;;;;;35.21;20.96;95179.22;10446067;28;20503;-78
2021/05/10 10:39:27;;;;;;;4.18;1.50;;;;;;;36.32;20.94;95175.69;10414203;28;20084;-79
2021/05/10 10:44:52;;;;;;;2.10;0.90;;;;;;;35.86;20.66;95166.94;10404192;28;20056;-79
2021/05/10 10:49:58;;;;;;;1.48;0.90;;;;;;;35.06;21.25;95159.84;10404953;28;20021;-81
2021/05/10 10:55:18;;;;;;;;;;;;;;;34.64;21.47;95153.69;10387445;28;20498;-79
2021/05/10 11:00:20;;;;;;;2.50;1.10;;;;;;;35.27;21.27;95141.19;10432737;28;19919;-78
2021/05/10 11:05:23;;;;;;;2.35;1.00;;;;;;;32.95;22.67;95142.25;10440629;28;20079;-79
2021/05/10 11:10:52;;;;;;;2.60;1.02;;;;;;;29.19;26.21;95139.63;10404658;28;20049;-79
2021/05/10 11:16:02;;;;;;;3.42;1.60;;;;;;;27.06;29.49;95137.09;10414751;28;20037;-79
2021/05/10 11:21:26;;;;;;;3.42;2.13;;;;;;;25.28;31.56;95132.00;10417128;28;20025;-76
2021/05/10 11:26:40;;;;;;;4.38;1.85;;;;;;;24.58;33.51;95123.25;10391861;28;20638;-76
2021/05/10 11:31:42;;;;;;;5.40;1.52;;;;;;;23.74;33.32;95118.59;10403523;28;20531;-76
2021/05/10 11:36:51;;;;;;;4.15;1.67;;;;;;;23.15;33.63;95115.31;10387235;28;20021;-77
2021/05/10 11:42:05;;;;;;;4.07;1.92;;;;;;;23.19;34.28;95102.50;10418443;28;20109;-77
2021/05/10 11:47:10;;;;;;;3.03;1.50;;;;;;;22.74;34.38;95088.94;10442020;28;20095;-77
2021/05/10 11:52:22;;;;;;;2.83;1.50;;;;;;;22.21;35.28;95094.97;10445625;28;20053;-77
2021/05/10 11:57:28;;;;;;;2.78;1.38;;;;;;;22.07;35.14;95099.97;10382702;28;20072;-77
2021/05/10 12:02:30;;;;;;;1.60;1.40;;;;;;;22.24;36.48;95094.31;10370356;28;20439;-77
2021/05/10 12:07:34;;;;;;;2.22;1.38;;;;;;;22.29;33.82;95098.78;10391414;28;20025;-77
2021/05/10 12:12:42;;;;;;;7.40;1.15;;;;;;;22.45;32.82;95074.28;10410134;28;20056;-78
2021/05/10 12:17:51;;;;;;;2.70;1.88;;;;;;;22.30;32.24;95079.28;10410283;28;20030;-77
2021/05/10 12:22:53;;;;;;;1.33;1.10;;;;;;;22.43;31.31;95069.16;10409837;28;20034;-77
2021/05/10 12:28:08;;;;;;;1.98;1.10;;;;;;;22.38;29.88;95066.63;10409744;28;20084;-77
2021/05/10 12:33:13;;;;;;;2.90;1.10;;;;;;;22.27;30.69;95063.53;10409745;28;20032;-77
2021/05/10 12:38:25;;;;;;;5.00;1.90;;;;;;;22.38;30.69;95049.41;10409634;28;20029;-77
2021/05/10 12:43:27;;;;;;;7.15;1.30;;;;;;;22.06;31.33;95054.56;10409043;28;20572;-78
2021/05/10 12:48:34;;;;;;;3.67;1.50;;;;;;;22.24;31.46;95039.53;10408131;28;20047;-77
2021/05/10 12:53:41;;;;;;;7.93;1.30;;;;;;;22.38;31.75;95031.03;10408763;28;20037;-77
2021/05/10 12:58:43;;;;;;;3.03;1.47;;;;;;;22.40;31.16;95020.56;10407919;28;20049;-76
2021/05/10 13:03:45;;;;;;;2.30;1.13;;;;;;;22.11;31.38;95025.03;10408023;28;20272;-76
2021/05/10 13:08:50;;;;;;;1.88;1.20;;;;;;;22.27;31.48;95019.72;10374945;28;20515;-76
2021/05/10 13:13:59;;;;;;;3.30;1.30;;;;;;;22.27;31.32;95005.22;10367440;28;20037;-76
2021/05/10 13:40:46;;;;;;;4.60;1.40;;;;;;;21.90;31.68;94986.81;10365843;28;20034;-77
2021/05/10 13:45:47;;;;;;;5.65;1.10;;;;;;;21.70;31.61;94988.50;10365892;28;20047;-77
2021/05/10 13:50:48;;;;;;;2.33;1.42;;;;;;;21.73;32.24;94982.34;10365476;28;20516;-77
2021/05/10 13:55:48;;;;;;;2.37;1.03;;;;;;;21.78;32.28;94964.91;10378889;28;20045;-80
2021/05/10 14:00:48;;;;;;;1.70;1.07;;;;;;;21.63;31.94;94975.38;10444346;28;20283;-81
2021/05/10 14:05:49;;;;;;;4.60;1.17;;;;;;;21.66;32.90;94973.91;10437719;28;20094;-79
2021/05/10 14:10:50;;;;;;;5.40;0.90;;;;;;;21.66;32.41;94961.00;10388261;28;20053;-81
2021/05/10 14:15:51;;;;;;;2.08;1.13;;;;;;;21.77;31.88;94955.09;10407212;28;20287;-77
2021/05/10 14:26:13;;;;;;;1.10;0.82;;;;;;;21.72;31.62;94952.59;10446528;28;20400;-77
2021/05/10 14:31:14;;;;;;;1.50;0.80;;;;;;;21.63;31.74;94949.97;10445842;28;20028;-77
2021/05/10 14:36:14;;;;;;;2.80;0.98;;;;;;;21.61;31.60;94946.75;10445313;28;20053;-77
2021/05/10 14:41:14;;;;;;;2.00;1.20;;;;;;;21.64;31.82;94932.38;10444833;28;20107;-77
2021/05/10 14:46:15;;;;;;;1.90;0.90;;;;;;;21.67;32.58;94929.78;10445582;28;20378;-78
2021/05/10 14:51:15;;;;;;;1.20;1.10;;;;;;;21.67;32.84;94940.72;10426301;28;20033;-77
2021/05/10 14:56:16;;;;;;;3.43;1.57;;;;;;;21.63;33.15;94928.06;10411124;28;20439;-77
2021/05/10 15:01:18;;;;;;;2.50;1.00;;;;;;;21.71;32.99;94929.09;10404006;28;20359;-77
2021/05/10 15:06:19;;;;;;;6.07;0.98;;;;;;;21.65;33.38;94921.09;10403748;28;20693;-77
2021/05/10 15:11:19;;;;;;;5.95;1.58;;;;;;;21.60;34.56;94913.13;10401432;28;20135;-79
2021/05/10 15:16:20;;;;;;;3.17;1.20;;;;;;;21.51;35.03;94920.59;10401798;28;20026;-77
2021/05/10 15:21:21;;;;;;;4.10;1.63;;;;;;;21.48;37.06;94910.34;10401625;28;20037;-77
2021/05/10 15:26:22;;;;;;;5.45;1.27;;;;;;;21.41;35.01;94910.09;10402069;28;20025;-77
2021/05/10 15:31:22;;;;;;;3.10;1.42;;;;;;;21.40;36.03;94911.25;10403966;28;20032;-77
2021/05/10 15:36:23;;;;;;;2.73;1.47;;;;;;;21.29;35.12;94917.16;10403413;28;20412;-77
2021/05/10 15:41:23;;;;;;;3.43;1.27;;;;;;;21.31;34.50;94911.34;10402983;28;20029;-77
2021/05/10 15:46:23;;;;;;;1.67;0.80;;;;;;;21.25;33.42;94909.94;10403282;28;20046;-77
2021/05/10 15:51:24;;;;;;;6.63;1.20;;;;;;;21.17;36.70;94908.91;10403077;28;20284;-77
2021/05/10 15:56:25;;;;;;;1.93;1.40;;;;;;;21.03;38.31;94911.94;10402550;28;20037;-77
2021/05/10 16:01:26;;;;;;;2.92;1.20;;;;;;;21.00;38.82;94912.56;10402748;28;20377;-77
2021/05/10 16:06:26;;;;;;;4.85;1.45;;;;;;;20.82;39.36;94910.00;10389386;28;20029;-77
2021/05/10 16:11:28;;;;;;;6.35;1.60;;;;;;;20.73;40.00;94912.00;10361460;28;20083;-77
2021/05/10 16:16:30;;;;;;;2.80;1.73;;;;;;;20.68;40.66;94917.69;10361501;28;20530;-78
2021/05/10 16:21:31;;;;;;;5.05;1.63;;;;;;;20.52;41.20;94922.09;10362442;28;20021;-77
2021/05/10 16:26:32;;;;;;;5.03;1.95;;;;;;;20.37;41.76;94928.94;10350970;28;20022;-77
2021/05/10 16:31:32;;;;;;;4.90;1.92;;;;;;;20.24;42.33;94928.06;10368212;28;20022;-77
2021/05/10 16:36:33;;;;;;;10.02;1.95;;;;;;;20.13;43.42;94927.63;10368860;28;20105;-78
2021/05/10 16:41:36;;;;;;;4.47;2.03;;;;;;;20.04;44.18;94938.59;10406107;28;20032;-78
2021/05/10 16:46:36;;;;;;;3.78;1.90;;;;;;;19.84;44.84;94937.38;10438983;28;20445;-78
2021/05/10 16:51:38;;;;;;;9.53;2.67;;;;;;;19.74;45.38;94951.38;10429782;28;20091;-77
2021/05/10 16:56:38;;;;;;;2.60;1.90;;;;;;;19.62;45.97;94944.66;10408326;28;20292;-78
2021/05/10 17:01:39;;;;;;;5.15;2.22;;;;;;;19.46;46.88;94944.38;10390429;28;20500;-77
2021/05/10 17:06:40;;;;;;;6.17;2.57;;;;;;;19.35;47.51;94945.06;10408893;28;20029;-78
2021/05/10 17:11:40;;;;;;;6.20;2.10;;;;;;;19.19;48.14;94950.22;10407211;28;20307;-78
2021/05/10 17:16:41;;;;;;;2.50;2.00;;;;;;;19.05;48.97;94953.13;10386349;28;20037;-78
2021/05/10 17:21:41;;;;;;;4.90;2.47;;;;;;;19.01;49.34;94949.44;10386884;28;20712;-78
2021/05/10 17:26:42;;;;;;;8.40;2.70;;;;;;;18.79;50.32;94956.59;10384611;28;20272;-78
2021/05/10 17:31:44;;;;;;;7.35;2.40;;;;;;;18.68;50.68;94953.41;10384267;28;20076;-78
2021/05/10 17:36:44;;;;;;;7.38;2.03;;;;;;;18.56;50.29;94945.88;10386167;28;20112;-78
2021/05/10 17:41:45;;;;;;;3.60;2.33;;;;;;;18.50;49.40;94959.94;10397312;28;20048;-78
2021/05/10 17:46:45;;;;;;;3.30;2.33;;;;;;;18.37;49.12;94956.25;10366166;28;20322;-79
2021/05/10 17:51:46;;;;;;;5.97;2.25;;;;;;;18.28;48.24;94965.19;10374427;28;20632;-78
2021/05/10 17:56:46;;;;;;;10.23;2.70;;;;;;;18.13;48.16;94952.03;10398459;28;20029;-76
2021/05/10 18:06:51;;;;;;;3.35;2.38;;;;;;;17.83;49.06;94976.19;10386115;28;20060;-78
2021/05/10 18:11:52;;;;;;;4.35;2.00;;;;;;;17.66;49.64;94982.34;10391936;28;20033;-78
2021/05/10 18:16:54;;;;;;;13.85;2.78;;;;;;;17.52;51.24;94979.72;10364298;28;20033;-77
2021/05/10 18:21:58;;;;;;;3.85;2.08;;;;;;;17.43;52.58;94981.59;10368889;28;20029;-77
2021/05/10 18:26:59;;;;;;;3.83;2.58;;;;;;;17.28;54.39;94982.00;10400165;28;20029;-77
2021/05/10 18:31:59;;;;;;;5.43;2.00;;;;;;;17.28;55.55;94990.13;10405358;28;20033;-77
2021/05/10 18:42:03;;;;;;;3.55;2.10;;;;;;;16.88;59.79;95007.91;10437122;28;20085;-76
2021/05/10 18:47:03;;;;;;;3.65;2.60;;;;;;;16.83;60.84;95007.97;10424977;28;20037;-77
2021/05/10 18:52:04;;;;;;;6.43;2.28;;;;;;;16.67;63.28;95012.13;10446117;28;20033;-77
2021/05/10 18:57:05;;;;;;;6.85;3.17;;;;;;;16.34;66.62;95015.81;10398129;28;20040;-77
2021/05/10 19:02:05;;;;;;;7.55;3.25;;;;;;;16.25;68.02;95012.19;10378947;28;20503;-76
2021/05/10 19:07:07;;;;;;;4.22;3.10;;;;;;;16.09;68.50;95011.69;10383747;28;20890;-77
2021/05/10 19:12:08;;;;;;;6.97;3.10;;;;;;;16.01;69.75;95015.91;10381020;28;20076;-77
2021/05/10 19:17:08;;;;;;;7.90;3.67;;;;;;;15.83;70.88;95023.00;10381320;28;20017;-77
2021/05/10 19:22:09;;;;;;;5.25;2.60;;;;;;;15.78;71.18;95023.09;10400312;28;20092;-77
2021/05/10 19:27:09;;;;;;;10.25;3.30;;;;;;;15.67;72.72;95029.75;10404140;28;20025;-77
2021/05/10 19:32:12;;;;;;;4.70;2.78;;;;;;;15.52;75.03;95044.41;10412471;28;20420;-77
2021/05/10 19:37:13;;;;;;;6.03;3.10;;;;;;;15.30;77.78;95036.91;10407971;28;20777;-78
2021/05/10 19:42:13;;;;;;;3.50;2.70;;;;;;;15.17;79.23;95041.97;10439760;28;20037;-76
2021/05/10 19:47:17;;;;;;;5.07;3.17;;;;;;;15.06;79.97;95043.22;10376983;28;20030;-77
2021/05/10 19:56:54;;;;;;;7.55;3.13;;;;;;;14.93;81.64;95046.66;10354710;28;20048;-77
2021/05/10 20:02:57;;;;;;;4.22;2.88;;;;;;;14.71;85.09;95050.75;10329164;28;20030;-77
2021/05/10 20:07:57;;;;;;;9.70;3.17;;;;;;;14.49;87.25;95046.66;10355506;28;20018;-78
2021/05/10 20:12:58;;;;;;;7.23;3.10;;;;;;;14.48;87.93;95049.66;10393189;28;20029;-78
2021/05/10 20:17:58;;;;;;;4.60;3.03;;;;;;;14.46;88.52;95047.25;10380510;28;20033;-78
2021/05/10 20:22:59;;;;;;;7.87;3.50;;;;;;;14.38;89.58;95049.81;10410393;28;20033;-78
2021/05/10 20:27:59;;;;;;;3.17;2.97;;;;;;;14.18;90.90;95043.53;10395337;28;20030;-77
2021/05/10 20:33:03;;;;;;;7.87;3.40;;;;;;;14.14;92.01;95050.63;10371991;28;20025;-78
2021/05/10 20:38:04;;;;;;;5.63;3.65;;;;;;;14.10;91.66;95052.28;10407088;28;20559;-78
2021/05/10 20:43:05;;;;;;;8.38;3.60;;;;;;;14.04;91.57;95048.84;10413713;28;20063;-79
2021/05/10 20:48:09;;;;;;;6.33;4.37;;;;;;;13.96;91.28;95047.56;10424193;28;20040;-79
2021/05/10 20:53:10;;;;;;;7.15;3.80;;;;;;;13.87;93.22;95059.28;10369300;28;20403;-78
2021/05/10 20:58:11;;;;;;;8.63;4.07;;;;;;;13.67;95.96;95063.78;10407960;28;20036;-79
2021/05/10 21:03:15;;;;;;;10.07;3.83;;;;;;;13.63;96.43;95068.13;10408017;28;20026;-79
2021/05/10 21:08:15;;;;;;;7.13;3.53;;;;;;;13.52;96.83;95067.41;10406971;28;20105;-79
2021/05/10 21:13:16;;;;;;;5.33;3.23;;;;;;;13.43;96.31;95074.53;10405166;28;20373;-79
2021/05/10 21:18:16;;;;;;;5.70;3.70;;;;;;;13.43;93.76;95072.63;10406936;28;20026;-79
2021/05/10 21:23:17;;;;;;;8.82;4.00;;;;;;;13.38;91.42;95072.69;10407321;28;20109;-79
2021/05/10 21:28:18;;;;;;;9.10;3.30;;;;;;;13.40;90.76;95067.00;10407923;28;20038;-79
2021/05/10 21:33:19;;;;;;;6.10;4.05;;;;;;;13.33;88.78;95064.59;10408307;28;20381;-79
2021/05/10 21:38:19;;;;;;;9.23;4.07;;;;;;;13.24;90.64;95066.28;10407688;28;20028;-79
2021/05/10 21:43:20;;;;;;;6.97;3.33;;;;;;;13.14;91.87;95056.34;10407867;28;20128;-80
2021/05/10 21:48:27;;;;;;;4.03;3.38;;;;;;;13.09;91.54;95061.78;10407707;28;20495;-79
2021/05/10 21:53:28;;;;;;;18.45;3.67;;;;;;;13.01;92.16;95057.00;10408665;28;20048;-79
2021/05/10 21:58:29;;;;;;;6.23;4.73;;;;;;;12.98;92.89;95047.59;10390559;28;20377;-79
2021/05/10 22:03:31;;;;;;;9.55;3.22;;;;;;;12.78;95.16;95060.13;10404386;28;20054;-79
2021/05/10 22:08:32;;;;;;;6.97;3.47;;;;;;;12.81;93.81;95048.75;10404800;28;20030;-79
2021/05/10 22:13:32;;;;;;;4.90;3.17;;;;;;;12.79;92.67;95050.91;10405263;28;20025;-79
2021/05/10 22:18:33;;;;;;;3.40;2.93;;;;;;;12.70;91.95;95049.09;10406255;28;20040;-79
2021/05/10 22:23:35;;;;;;;6.90;2.55;;;;;;;12.54;90.91;95048.38;10403861;28;21028;-79
2021/05/10 22:28:35;;;;;;;6.18;2.80;;;;;;;12.51;87.23;95049.72;10405304;28;20029;-79
2021/05/10 22:33:37;;;;;;;8.80;3.20;;;;;;;12.48;85.60;95048.38;10406024;28;20029;-79
2021/05/10 23:20:54;;;;;;;4.75;3.05;;;;;;;11.54;87.25;95032.78;10330147;28;20045;-79
2021/05/10 23:25:55;;;;;;;3.23;2.20;;;;;;;11.58;87.77;95027.66;10404368;28;20096;-79
2021/05/10 23:30:55;;;;;;;5.07;2.53;;;;;;;11.54;87.48;95024.72;10404547;28;20272;-79
2021/05/10 23:35:56;;;;;;;5.88;2.70;;;;;;;11.46;88.09;95017.97;10394137;28;20025;-79
2021/05/10 23:40:56;;;;;;;3.55;2.03;;;;;;;11.53;89.52;95019.59;10412358;28;20029;-80
2021/05/10 23:45:57;;;;;;;6.00;2.70;;;;;;;11.52;88.65;95009.91;10412165;28;20041;-79
2021/05/10 23:50:57;;;;;;;7.13;3.13;;;;;;;11.36;89.75;95012.63;10412803;28;20048;-79
2021/05/10 23:55:57;;;;;;;5.93;2.08;;;;;;;11.40;90.02;95007.50;10411710;28;20731;-80
